createdAt,value
2023-01-22T00:01:25.823Z,1.83
2023-01-22T00:03:55.050Z,1.81
2023-01-22T00:06:24.612Z,1.84
2023-01-22T00:08:54.920Z,1.84
2023-01-22T00:11:24.163Z,1.85
2023-01-22T00:13:53.030Z,1.88
2023-01-22T00:16:23.376Z,1.88
2023-01-22T00:18:52.379Z,1.86
2023-01-22T00:21:21.535Z,1.84
2023-01-22T00:23:50.511Z,1.86
2023-01-22T00:26:21.153Z,1.85
2023-01-22T00:28:50.403Z,1.83
2023-01-22T00:31:20.552Z,1.77
2023-01-22T00:33:50.086Z,1.78
2023-01-22T00:36:21.131Z,1.78
2023-01-22T00:38:51.082Z,1.76
2023-01-22T00:41:22.322Z,1.80
2023-01-22T00:43:52.981Z,1.80
2023-01-22T00:46:22.607Z,1.80
2023-01-22T00:48:51.466Z,1.77
2023-01-22T00:51:21.226Z,1.78
2023-01-22T00:53:50.238Z,1.83
2023-01-22T00:56:20.811Z,1.77
2023-01-22T00:58:49.527Z,1.76
2023-01-22T01:01:20.346Z,1.77
2023-01-22T01:03:49.257Z,1.75
2023-01-22T01:06:20.601Z,1.77
2023-01-22T01:08:50.591Z,1.76
2023-01-22T01:11:23.402Z,1.75
2023-01-22T01:13:53.623Z,1.73
2023-01-22T01:16:26.709Z,1.73
2023-01-22T01:18:58.852Z,1.74
2023-01-22T01:21:29.090Z,1.74
2023-01-22T01:23:58.856Z,1.75
2023-01-22T01:26:30.029Z,1.74
2023-01-22T01:28:59.008Z,1.72
2023-01-22T01:31:28.304Z,1.71
2023-01-22T01:33:59.378Z,1.75
2023-01-22T01:36:47.635Z,1.75
2023-01-22T01:39:17.800Z,1.77
2023-01-22T01:41:48.308Z,1.76
2023-01-22T01:44:18.072Z,1.72
2023-01-22T01:46:51.773Z,1.72
2023-01-22T01:49:27.372Z,1.69
2023-01-22T01:51:59.380Z,1.65
2023-01-22T01:54:29.206Z,1.62
2023-01-22T01:57:04.947Z,1.65
2023-01-22T01:59:35.237Z,1.63
2023-01-22T02:02:05.333Z,1.61
2023-01-22T02:04:34.288Z,1.59
2023-01-22T02:07:04.568Z,1.59
2023-01-22T02:09:35.172Z,1.56
2023-01-22T02:12:06.394Z,1.56
2023-01-22T02:14:39.552Z,1.61
2023-01-22T02:17:11.914Z,1.62
2023-01-22T02:19:41.765Z,1.62
2023-01-22T02:22:15.788Z,1.62
2023-01-22T02:24:45.390Z,1.58
2023-01-22T02:27:14.691Z,1.61
2023-01-22T02:29:43.734Z,1.61
2023-01-22T02:32:13.914Z,1.62
2023-01-22T02:34:42.964Z,1.63
2023-01-22T02:37:14.042Z,1.62
2023-01-22T02:39:42.920Z,1.64
2023-01-22T02:42:12.727Z,1.64
2023-01-22T02:44:43.263Z,1.65
2023-01-22T02:47:12.478Z,1.63
2023-01-22T02:49:41.345Z,1.65
2023-01-22T02:52:10.634Z,1.72
2023-01-22T02:54:40.867Z,1.72
2023-01-22T02:57:10.193Z,1.77
2023-01-22T02:59:39.109Z,1.78
2023-01-22T03:02:12.597Z,1.79
2023-01-22T03:04:41.576Z,1.81
2023-01-22T03:07:12.269Z,1.81
2023-01-22T03:09:42.600Z,1.82
2023-01-22T03:12:11.894Z,1.84
2023-01-22T03:14:58.237Z,1.88
2023-01-22T03:17:44.680Z,1.88
2023-01-22T03:20:31.423Z,1.89
2023-01-22T03:23:00.670Z,1.92
2023-01-22T03:25:30.890Z,1.90
2023-01-22T03:28:16.473Z,1.88
2023-01-22T03:30:49.648Z,1.88
2023-01-22T03:33:19.047Z,1.89
2023-01-22T03:35:50.716Z,1.89
2023-01-22T03:38:22.861Z,1.90
2023-01-22T03:40:53.143Z,1.92
2023-01-22T03:43:24.507Z,1.95
2023-01-22T03:45:53.581Z,2.00
2023-01-22T03:48:24.070Z,2.07
2023-01-22T03:50:53.324Z,2.11
2023-01-22T03:53:22.523Z,2.13
2023-01-22T03:56:00.775Z,2.16
2023-01-22T03:58:31.499Z,2.17
2023-01-22T04:01:05.607Z,2.17
2023-01-22T04:03:35.387Z,2.21
2023-01-22T04:06:05.713Z,2.21
2023-01-22T04:08:36.648Z,2.16
2023-01-22T04:11:08.075Z,2.08
2023-01-22T04:13:40.080Z,2.02
2023-01-22T04:16:10.989Z,1.99
2023-01-22T04:18:58.564Z,2.01
2023-01-22T04:21:59.836Z,2.09
2023-01-22T04:24:29.069Z,2.08
2023-01-22T04:26:59.351Z,2.13
2023-01-22T04:29:29.500Z,2.16
2023-01-22T04:31:59.017Z,2.21
2023-01-22T04:34:47.455Z,2.23
2023-01-22T04:37:26.005Z,2.21
2023-01-22T04:39:55.227Z,2.19
2023-01-22T04:42:27.189Z,2.18
2023-01-22T04:44:56.442Z,2.19
2023-01-22T04:47:25.705Z,2.19
2023-01-22T04:49:55.064Z,2.20
2023-01-22T04:52:23.970Z,2.22
2023-01-22T04:54:53.925Z,2.26
2023-01-22T04:57:25.595Z,2.25
2023-01-22T04:59:54.883Z,2.19
2023-01-22T05:02:23.909Z,2.21
2023-01-22T05:04:54.123Z,2.19
2023-01-22T05:07:23.070Z,2.23
2023-01-22T05:09:52.245Z,2.25
2023-01-22T05:12:21.258Z,2.31
2023-01-22T05:14:53.351Z,2.34
2023-01-22T05:17:23.231Z,2.39
2023-01-22T05:19:52.459Z,2.41
2023-01-22T05:22:23.147Z,2.42
2023-01-22T05:24:52.418Z,2.43
2023-01-22T05:27:21.366Z,2.43
2023-01-22T05:30:00.109Z,2.43
2023-01-22T05:32:51.039Z,2.45
2023-01-22T05:35:20.866Z,2.48
2023-01-22T05:37:50.216Z,2.50
2023-01-22T05:40:21.101Z,2.48
2023-01-22T05:42:50.112Z,2.46
2023-01-22T05:45:21.170Z,2.46
2023-01-22T05:48:13.506Z,2.47
2023-01-22T05:50:58.579Z,2.43
2023-01-22T05:53:27.519Z,2.45
2023-01-22T05:56:00.729Z,2.46
2023-01-22T05:58:29.666Z,2.44
2023-01-22T06:01:01.235Z,2.48
2023-01-22T06:03:35.550Z,2.45
2023-01-22T06:06:08.392Z,2.44
2023-01-22T06:08:37.382Z,2.46
2023-01-22T06:11:09.190Z,2.45
2023-01-22T06:13:39.148Z,2.45
2023-01-22T06:16:19.926Z,2.45
2023-01-22T06:19:04.232Z,2.38
2023-01-22T06:21:41.043Z,2.28
2023-01-22T06:24:10.664Z,2.32
2023-01-22T06:26:39.824Z,2.21
2023-01-22T06:29:11.308Z,2.18
2023-01-22T06:31:42.870Z,2.14
2023-01-22T06:34:16.512Z,2.10
2023-01-22T06:36:45.969Z,2.12
2023-01-22T06:39:16.633Z,2.15
2023-01-22T06:41:52.808Z,2.15
2023-01-22T06:44:21.765Z,2.17
2023-01-22T06:46:53.203Z,2.17
2023-01-22T06:49:26.422Z,2.18
2023-01-22T06:51:57.084Z,2.19
2023-01-22T06:54:26.008Z,2.19
2023-01-22T06:56:55.740Z,2.19
2023-01-22T06:59:26.286Z,2.22
2023-01-22T07:01:56.993Z,2.27
2023-01-22T07:04:25.856Z,2.28
2023-01-22T07:06:55.022Z,2.26
2023-01-22T07:09:24.101Z,2.25
2023-01-22T07:11:53.238Z,2.22
2023-01-22T07:14:36.234Z,2.24
2023-01-22T07:17:08.012Z,2.24
2023-01-22T07:19:36.941Z,2.22
2023-01-22T07:22:06.125Z,2.24
2023-01-22T07:24:35.168Z,2.26
2023-01-22T07:27:04.790Z,2.26
2023-01-22T07:29:33.698Z,2.23
2023-01-22T07:32:02.917Z,2.25
2023-01-22T07:34:34.419Z,2.31
2023-01-22T07:37:04.133Z,2.35
2023-01-22T07:39:33.043Z,2.39
2023-01-22T07:42:02.457Z,2.40
2023-01-22T07:44:32.903Z,2.41
2023-01-22T07:47:02.148Z,2.39
2023-01-22T07:49:32.498Z,2.39
2023-01-22T07:52:01.790Z,2.43
2023-01-22T07:54:31.113Z,2.45
2023-01-22T07:57:00.346Z,2.47
2023-01-22T07:59:29.207Z,2.50
2023-01-22T08:01:58.657Z,2.49
2023-01-22T08:04:27.647Z,2.50
2023-01-22T08:06:58.285Z,2.48
2023-01-22T08:09:27.181Z,2.48
2023-01-22T08:11:56.528Z,2.49
2023-01-22T08:14:25.435Z,2.49
2023-01-22T08:16:54.613Z,2.50
2023-01-22T08:19:23.589Z,2.50
2023-01-22T08:21:52.737Z,2.51
2023-01-22T08:24:23.181Z,2.53
2023-01-22T08:26:52.618Z,2.52
2023-01-22T08:29:21.645Z,2.54
2023-01-22T08:31:53.200Z,2.55
2023-01-22T08:34:22.519Z,2.57
2023-01-22T08:36:51.696Z,2.61
2023-01-22T08:39:22.191Z,2.61
2023-01-22T08:41:52.232Z,2.62
2023-01-22T08:44:21.173Z,2.62
2023-01-22T08:46:50.344Z,2.62
2023-01-22T08:49:21.441Z,2.62
2023-01-22T08:51:50.898Z,2.64
2023-01-22T08:54:19.954Z,2.66
2023-01-22T08:56:51.164Z,2.61
2023-01-22T08:59:20.160Z,2.61
2023-01-22T09:01:49.376Z,2.61
2023-01-22T09:04:19.792Z,2.61
2023-01-22T09:06:49.086Z,2.63
2023-01-22T09:09:18.072Z,2.64
2023-01-22T09:11:47.490Z,2.63
2023-01-22T09:14:17.731Z,2.59
2023-01-22T09:16:47.025Z,2.57
2023-01-22T09:19:16.005Z,2.59
2023-01-22T09:21:45.240Z,2.57
2023-01-22T09:24:14.140Z,2.55
2023-01-22T09:26:43.679Z,2.54
2023-01-22T09:29:12.675Z,2.55
2023-01-22T09:31:43.298Z,2.53
2023-01-22T09:34:12.119Z,2.52
2023-01-22T09:36:42.975Z,2.49
2023-01-22T09:39:11.994Z,2.48
2023-01-22T09:41:46.691Z,2.47
2023-01-22T09:44:22.228Z,2.44
2023-01-22T09:46:57.535Z,2.45
2023-01-22T09:49:30.443Z,2.48
2023-01-22T09:52:05.165Z,2.50
2023-01-22T09:54:35.437Z,2.48
2023-01-22T09:57:06.147Z,2.39
2023-01-22T09:59:38.697Z,2.35
2023-01-22T10:02:24.216Z,2.32
2023-01-22T10:04:58.067Z,2.27
2023-01-22T10:07:33.487Z,2.26
2023-01-22T10:10:13.435Z,2.21
2023-01-22T10:12:43.144Z,2.18
2023-01-22T10:15:16.279Z,2.19
2023-01-22T10:17:47.782Z,2.18
2023-01-22T10:20:21.773Z,2.21
2023-01-22T10:22:56.208Z,2.26
2023-01-22T10:25:25.985Z,2.30
2023-01-22T10:28:04.303Z,2.33
2023-01-22T10:30:35.850Z,2.35
2023-01-22T10:33:08.873Z,2.39
2023-01-22T10:35:45.154Z,2.41
2023-01-22T10:38:24.869Z,2.45
2023-01-22T10:40:58.985Z,2.43
2023-01-22T10:43:34.193Z,2.44
2023-01-22T10:46:13.565Z,2.39
2023-01-22T10:48:44.553Z,2.42
2023-01-22T10:51:17.200Z,2.45
2023-01-22T10:53:49.273Z,2.45
2023-01-22T10:56:29.066Z,2.44
2023-01-22T10:58:59.267Z,2.46
2023-01-22T11:01:33.210Z,2.51
2023-01-22T11:04:13.411Z,2.53
2023-01-22T11:06:48.554Z,2.56
2023-01-22T11:09:22.169Z,2.55
2023-01-22T11:11:58.702Z,2.54
2023-01-22T11:14:33.427Z,2.53
2023-01-22T11:17:07.550Z,2.57
2023-01-22T11:19:45.933Z,2.56
2023-01-22T11:22:26.037Z,2.55
2023-01-22T11:24:55.522Z,2.56
2023-01-22T11:27:59.447Z,2.56
2023-01-22T11:30:52.095Z,2.61
2023-01-22T11:33:38.853Z,2.63
2023-01-22T11:36:18.277Z,2.68
2023-01-22T11:38:51.966Z,2.70
2023-01-22T11:41:46.942Z,2.71
2023-01-22T11:44:49.201Z,2.72
2023-01-22T11:47:47.822Z,2.72
2023-01-22T11:50:27.501Z,2.73
2023-01-22T11:53:14.151Z,2.75
2023-01-22T11:56:03.454Z,2.77
2023-01-22T11:58:42.995Z,2.78
2023-01-22T12:01:20.870Z,2.79
2023-01-22T12:04:25.611Z,2.78
2023-01-22T12:07:28.295Z,2.77
2023-01-22T12:10:13.968Z,2.76
2023-01-22T12:12:51.067Z,2.75
2023-01-22T12:15:39.269Z,2.72
2023-01-22T12:18:35.511Z,2.68
2023-01-22T12:21:09.698Z,2.66
2023-01-22T12:23:47.474Z,2.65
2023-01-22T12:26:23.230Z,2.64
2023-01-22T12:28:57.829Z,2.65
2023-01-22T12:31:32.816Z,2.68
2023-01-22T12:34:05.193Z,2.70
2023-01-22T12:36:35.479Z,2.73
2023-01-22T12:39:10.979Z,2.71
2023-01-22T12:41:59.683Z,2.68
2023-01-22T12:44:45.020Z,2.73
2023-01-22T12:47:20.748Z,2.71
2023-01-22T12:49:51.321Z,2.71
2023-01-22T12:52:33.076Z,2.71
2023-01-22T12:55:03.906Z,2.73
2023-01-22T12:57:42.867Z,2.71
2023-01-22T13:00:23.745Z,2.69
2023-01-22T13:02:53.207Z,2.70
2023-01-22T13:05:37.977Z,2.71
2023-01-22T13:08:22.080Z,2.71
2023-01-22T13:10:56.976Z,2.75
2023-01-22T13:13:34.471Z,2.79
2023-01-22T13:16:06.499Z,2.79
2023-01-22T13:18:42.547Z,2.81
2023-01-22T13:21:14.673Z,2.81
2023-01-22T13:23:46.423Z,2.77
2023-01-22T13:26:22.482Z,2.80
2023-01-22T13:28:56.746Z,2.80
2023-01-22T13:31:26.439Z,2.78
2023-01-22T13:33:59.338Z,2.79
2023-01-22T13:36:29.194Z,2.83
2023-01-22T13:39:00.271Z,2.84
2023-01-22T13:41:34.104Z,2.85
2023-01-22T13:44:07.133Z,2.88
2023-01-22T13:46:39.383Z,2.87
2023-01-22T13:49:16.536Z,2.84
2023-01-22T13:51:45.902Z,2.85
2023-01-22T13:54:23.077Z,2.86
2023-01-22T13:56:52.595Z,2.87
2023-01-22T13:59:25.850Z,2.85
2023-01-22T14:01:55.412Z,2.82
2023-01-22T14:04:30.511Z,2.82
2023-01-22T14:07:01.429Z,2.79
2023-01-22T14:09:34.611Z,2.79
2023-01-22T14:12:16.670Z,2.77
2023-01-22T14:14:48.395Z,2.76
2023-01-22T14:17:28.815Z,2.74
2023-01-22T14:19:58.614Z,2.69
2023-01-22T14:22:28.302Z,2.68
2023-01-22T14:24:57.677Z,2.70
2023-01-22T14:27:29.484Z,2.70
2023-01-22T14:30:00.179Z,2.70
2023-01-22T14:32:29.373Z,2.70
2023-01-22T14:34:59.285Z,2.70
2023-01-22T14:37:28.594Z,2.68
2023-01-22T14:39:57.934Z,2.66
2023-01-22T14:42:28.149Z,2.69
2023-01-22T14:44:58.935Z,2.69
2023-01-22T14:47:27.698Z,2.69
2023-01-22T14:49:56.907Z,2.69
2023-01-22T14:52:25.947Z,2.71
2023-01-22T14:54:56.074Z,2.73
2023-01-22T14:57:25.842Z,2.71
2023-01-22T14:59:55.108Z,2.74
2023-01-22T15:02:25.683Z,2.74
2023-01-22T15:04:55.055Z,2.74
2023-01-22T15:07:24.005Z,2.73
2023-01-22T15:09:53.701Z,2.72
2023-01-22T15:12:23.354Z,2.70
2023-01-22T15:14:52.860Z,2.70
2023-01-22T15:17:24.098Z,2.67
2023-01-22T15:19:53.533Z,2.70
2023-01-22T15:22:22.680Z,2.71
2023-01-22T15:24:52.016Z,2.71
2023-01-22T15:27:21.077Z,2.70
2023-01-22T15:29:50.503Z,2.71
2023-01-22T15:32:19.512Z,2.71
2023-01-22T15:34:50.060Z,2.69
2023-01-22T15:37:18.997Z,2.65
2023-01-22T15:39:48.503Z,2.61
2023-01-22T15:42:17.722Z,2.61
2023-01-22T15:44:47.195Z,2.62
2023-01-22T15:47:16.596Z,2.61
2023-01-22T15:49:45.976Z,2.65
2023-01-22T15:52:16.396Z,2.63
2023-01-22T15:54:47.250Z,2.63
2023-01-22T15:57:16.567Z,2.61
2023-01-22T15:59:46.047Z,2.57
2023-01-22T16:02:15.231Z,2.56
2023-01-22T16:04:44.619Z,2.48
2023-01-22T16:07:15.009Z,2.46
2023-01-22T16:09:44.490Z,2.50
2023-01-22T16:12:13.368Z,2.50
2023-01-22T16:14:42.670Z,2.49
2023-01-22T16:17:11.843Z,2.50
2023-01-22T16:19:41.211Z,2.50
2023-01-22T16:22:10.176Z,2.50
2023-01-22T16:24:40.840Z,2.50
2023-01-22T16:27:09.610Z,2.45
2023-01-22T16:29:40.033Z,2.43
2023-01-22T16:32:09.063Z,2.41
2023-01-22T16:34:38.304Z,2.38
2023-01-22T16:37:07.268Z,2.35
2023-01-22T16:39:37.044Z,2.35
2023-01-22T16:42:07.581Z,2.33
2023-01-22T16:44:38.179Z,2.36
2023-01-22T16:47:07.469Z,2.39
2023-01-22T16:49:36.801Z,2.40
2023-01-22T16:52:21.505Z,2.38
2023-01-22T16:54:52.632Z,2.39
2023-01-22T16:57:23.126Z,2.38
2023-01-22T16:59:52.594Z,2.38
2023-01-22T17:02:21.877Z,2.39
2023-01-22T17:04:51.334Z,2.39
2023-01-22T17:07:32.811Z,2.42
2023-01-22T17:10:03.142Z,2.45
2023-01-22T17:12:33.724Z,2.42
2023-01-22T17:15:03.295Z,2.41
2023-01-22T17:17:33.374Z,2.45
2023-01-22T17:20:02.817Z,2.47
2023-01-22T17:22:33.155Z,2.52
2023-01-22T17:25:02.569Z,2.54
2023-01-22T17:27:36.662Z,2.54
2023-01-22T17:30:08.942Z,2.54
2023-01-22T17:32:38.352Z,2.57
2023-01-22T17:35:09.900Z,2.56
2023-01-22T17:37:38.951Z,2.57
2023-01-22T17:40:09.825Z,2.59
2023-01-22T17:42:40.148Z,2.59
2023-01-22T17:45:11.608Z,2.58
2023-01-22T17:47:45.200Z,2.54
2023-01-22T17:50:14.539Z,2.57
2023-01-22T17:52:43.610Z,2.48
2023-01-22T17:55:13.127Z,2.56
2023-01-22T17:57:43.511Z,2.54
2023-01-22T18:00:13.919Z,2.54
2023-01-22T18:02:43.491Z,2.46
2023-01-22T18:05:12.759Z,2.46
2023-01-22T18:07:42.286Z,2.46
2023-01-22T18:10:13.547Z,2.49
2023-01-22T18:12:44.464Z,2.47
2023-01-22T18:15:13.874Z,2.47
2023-01-22T18:17:42.928Z,2.44
2023-01-22T18:20:13.186Z,2.45
2023-01-22T18:22:42.385Z,2.48
2023-01-22T18:25:12.009Z,2.48
2023-01-22T18:27:41.080Z,2.48
2023-01-22T18:30:15.394Z,2.46
2023-01-22T18:32:44.409Z,2.41
2023-01-22T18:35:13.824Z,2.39
2023-01-22T18:37:43.118Z,2.42
2023-01-22T18:40:13.897Z,2.46
2023-01-22T18:42:42.925Z,2.48
2023-01-22T18:45:14.697Z,2.51
2023-01-22T18:47:43.838Z,2.51
2023-01-22T18:50:16.654Z,2.51
2023-01-22T18:52:45.888Z,2.50
2023-01-22T18:55:17.290Z,2.51
2023-01-22T18:57:52.282Z,2.52
2023-01-22T19:00:24.601Z,2.42
2023-01-22T19:02:56.993Z,2.46
2023-01-22T19:05:28.432Z,2.47
2023-01-22T19:07:57.681Z,2.49
2023-01-22T19:10:28.049Z,2.49
2023-01-22T19:12:56.992Z,2.46
2023-01-22T19:15:28.183Z,2.45
2023-01-22T19:17:57.645Z,2.46
2023-01-22T19:20:27.122Z,2.47
2023-01-22T19:22:57.300Z,2.50
2023-01-22T19:25:26.945Z,2.48
2023-01-22T19:27:57.124Z,2.49
2023-01-22T19:30:27.805Z,2.50
2023-01-22T19:32:56.769Z,2.47
2023-01-22T19:35:26.012Z,2.44
2023-01-22T19:37:54.967Z,2.41
2023-01-22T19:40:25.321Z,2.42
2023-01-22T19:42:54.538Z,2.38
2023-01-22T19:45:23.918Z,2.38
2023-01-22T19:47:56.617Z,2.38
2023-01-22T19:50:26.037Z,2.41
2023-01-22T19:52:54.916Z,2.38
2023-01-22T19:55:26.504Z,2.29
2023-01-22T19:57:56.016Z,2.28
2023-01-22T20:00:25.538Z,2.26
2023-01-22T20:02:55.915Z,2.20
2023-01-22T20:05:25.395Z,2.19
2023-01-22T20:07:58.953Z,2.23
2023-01-22T20:10:28.468Z,2.22
2023-01-22T20:12:57.358Z,2.20
2023-01-22T20:15:26.834Z,2.18
2023-01-22T20:17:57.294Z,2.16
2023-01-22T20:20:28.088Z,2.16
2023-01-22T20:22:57.111Z,2.14
2023-01-22T20:25:31.180Z,2.13
2023-01-22T20:28:01.250Z,2.15
2023-01-22T20:30:30.758Z,2.18
2023-01-22T20:33:02.163Z,2.22
2023-01-22T20:35:32.047Z,2.24
2023-01-22T20:38:01.164Z,2.24
2023-01-22T20:40:30.825Z,2.19
2023-01-22T20:43:01.069Z,2.18
2023-01-22T20:45:31.477Z,2.19
2023-01-22T20:48:02.939Z,2.18
2023-01-22T20:50:32.615Z,2.20
2023-01-22T20:53:01.850Z,2.21
2023-01-22T20:55:31.285Z,2.22
2023-01-22T20:58:00.321Z,2.21
2023-01-22T21:00:29.767Z,2.23
2023-01-22T21:02:58.807Z,2.25
2023-01-22T21:05:29.996Z,2.25
2023-01-22T21:07:59.135Z,2.24
2023-01-22T21:10:30.516Z,2.22
2023-01-22T21:12:59.440Z,2.21
2023-01-22T21:15:28.727Z,2.22
2023-01-22T21:17:57.824Z,2.21
2023-01-22T21:20:28.404Z,2.19
2023-01-22T21:22:57.212Z,2.20
2023-01-22T21:25:26.517Z,2.18
2023-01-22T21:27:55.508Z,2.21
2023-01-22T21:30:24.741Z,2.21
2023-01-22T21:32:53.943Z,2.20
2023-01-22T21:35:23.256Z,2.20
2023-01-22T21:37:53.700Z,2.23
2023-01-22T21:40:23.122Z,2.26
2023-01-22T21:43:09.578Z,2.25
2023-01-22T21:46:00.519Z,2.25
2023-01-22T21:48:30.377Z,2.23
2023-01-22T21:50:59.696Z,2.24
2023-01-22T21:53:29.967Z,2.27
2023-01-22T21:55:59.201Z,2.30
2023-01-22T21:58:28.366Z,2.28
2023-01-22T22:01:03.837Z,2.30
2023-01-22T22:03:34.960Z,2.28
2023-01-22T22:06:04.529Z,2.21
2023-01-22T22:08:37.350Z,2.17
2023-01-22T22:11:07.457Z,2.13
2023-01-22T22:13:36.945Z,2.17
2023-01-22T22:16:08.109Z,2.18
2023-01-22T22:18:37.299Z,2.22
2023-01-22T22:21:09.301Z,2.23
2023-01-22T22:23:40.302Z,2.20
2023-01-22T22:26:12.230Z,2.19
2023-01-22T22:28:41.314Z,2.18
2023-01-22T22:31:12.854Z,2.16
2023-01-22T22:33:42.332Z,2.18
2023-01-22T22:36:13.181Z,2.23
2023-01-22T22:38:43.919Z,2.21
2023-01-22T22:41:15.495Z,2.24
2023-01-22T22:43:47.319Z,2.27
2023-01-22T22:46:18.945Z,2.26
2023-01-22T22:48:49.063Z,2.24
2023-01-22T22:51:20.683Z,2.26
2023-01-22T22:53:55.444Z,2.27
2023-01-22T22:56:25.133Z,2.22
2023-01-22T22:58:54.456Z,2.21
2023-01-22T23:01:25.967Z,2.19
2023-01-22T23:03:55.459Z,2.19
2023-01-22T23:06:30.590Z,2.17
2023-01-22T23:09:22.231Z,2.21
2023-01-22T23:11:53.219Z,2.22
2023-01-22T23:14:24.251Z,2.19
2023-01-22T23:16:53.799Z,2.20
2023-01-22T23:19:24.767Z,2.20
2023-01-22T23:21:56.960Z,2.20
2023-01-22T23:24:28.476Z,2.20
2023-01-22T23:26:57.815Z,2.18
2023-01-22T23:29:29.136Z,2.20
2023-01-22T23:31:58.618Z,2.21
2023-01-22T23:34:27.513Z,2.20
2023-01-22T23:36:56.744Z,2.20
2023-01-22T23:39:27.848Z,2.16
2023-01-22T23:41:57.126Z,2.13
2023-01-22T23:44:26.420Z,2.17
2023-01-22T23:46:55.677Z,2.18
2023-01-22T23:49:24.560Z,2.25
2023-01-22T23:51:53.826Z,2.25
2023-01-22T23:54:22.725Z,2.22
2023-01-22T23:56:53.304Z,2.22
2023-01-22T23:59:23.543Z,2.21
